Burlington, NJ (08016)

7:45 AM EST on December 25, 2014 (GMT -0500)
The Hutte | Change Station
CLOSE
Current Station
Personal Weather Station
Location: Burlington, NJ
Elevation: 28 ft
Nearby Weather Stations

Elev 28 ft 40.08 °N, 74.82 °W | Updated 8 seconds ago

Mostly Cloudy
Mostly Cloudy
49.7 °F
Feels Like 50 °F
N
2.0
Wind Variable Wind from West
Gusts 6.0 mph

Today
High -- | Low -- °F
--% Chance of Precip.
Yesterday
High -- | Low -- °F
Precip. -- in
7:19 AM 4:39 PM
Waxing Crescent, 16% visible
Pressure 29.68 in
Visibility 10.0 miles
Clouds Scattered Clouds 2600 ft
Scattered Clouds 3200 ft
Overcast 4800 ft
Windchill 50 °F
Dew Point 44 °F
Humidity 81%
Rainfall 0.09 in
Snow Depth Not available.
UV 0 out of 12
Pollen .10 out of 12
Air Quality Not available.
Flu Activity Not available.
METAR KVAY 251154Z AUTO 31007G17KT 270V330 10SM SCT026 SCT032 OVC048 11/08 A2968 RMK AO2 RAE39 SLP048 P0001 60015 70090 T01060078 10178 20106 51032

More Conditions Fewer Conditions

Pressure 29.68 in
Visibility 10.0 miles
Clouds Scattered Clouds 2600 ft
Scattered Clouds 3200 ft
Overcast 4800 ft
Windchill 50 °F
Dew Point 44 °F
Humidity 81%
Rainfall 0.09 in
Snow Depth Not available.
UV 0 out of 12
Pollen .10 out of 12
Air Quality Not available.
Flu Activity Not available.
METAR KVAY 251154Z AUTO 31007G17KT 270V330 10SM SCT026 SCT032 OVC048 11/08 A2968 RMK AO2 RAE39 SLP048 P0001 60015 70090 T01060078 10178 20106 51032

More Conditions Fewer Conditions

Nowcast | as of 7:41 am EST on December 25, 2014

Rain showers will move off the coast between now and 10 am. Additional accumulations of less then one-tenth of an inch are expected. West winds will gradually increase, with gusts up to 35 mph possible...especially near the coast.

×

10-Day Weather Forecast

Almanac

Astronomy

Dec. 25, 2014 Rise Set
Actual Time
Civil Twilight
Nautical Twilight
Astronomical Twilight
Moon
Length of Visible Light
Length of Day
Tomorrow will be .
, % of the Moon is Illuminated

Today's Extremes

State Highs State Lows

Community

WunderPhotos

Upload Photos

1,780,266 photos uploaded!

WunderBlogs® & News

Nearby

Air Quality

  Air Quality AQ Index Pollutant
Not available.

Snow Depth

Station Depth Elevation

Earthquake Activity

City Distance Mag. Time & Date
Minimum magnitude displayed is 2.5.

Coastal Water Temperatures

Place Temperature

Nearby Weather Stations